Latest Weather Observations for Mallacoota

IDV60801

Issued at 6:32 am EDT Monday 9 December 2019 (issued every 10 minutes, with the page automatically refreshed every 10 minutes)

About weather observations | Map of weather stations | Latest weather observations for VIC | Other Formats
Station Details ID: 084084 Name: MALLACOOTA Lat: -37.60 Lon: 149.73 Height: 22.0 m
Data from the previous 72 hours. | See also: Recent months at Mallacoota
Date/Time
EDT
Temp
°C
App
Temp
°C
Dew
Point
°C
Rel
Hum
%
Delta-T
°C
Wind Press
QNH
hPa
Press
MSL
hPa
Rain since
9am
mm
Dir  Spd
km/h
Gust
km/h
Spd
kts
Gust
kts
09/06:30am 18.3 16.3 15.0 81 1.9 N 19 26 10 14 1017.7 1017.7 0.0
09/06:00am 17.7 15.6 14.6 82 1.8 N 19 32 10 17 1017.8 1017.8 0.0
09/05:30am 17.3 15.4 14.2 82 1.8 N 17 30 9 16 1017.9 1017.9 0.0
09/05:00am 17.1 15.5 13.8 81 1.9 N 15 24 8 13 1018.0 1018.0 0.0
09/04:30am 16.6 14.8 13.3 81 1.8 NNE 15 20 8 11 1018.1 1018.1 0.0
09/04:00am 16.4 14.5 13.1 81 1.8 NNE 15 22 8 12 1018.4 1018.4 0.0
09/03:30am 16.1 14.5 12.8 81 1.8 N 13 20 7 11 1018.7 1018.7 0.0
09/03:00am 15.9 14.2 12.6 81 1.8 NNE 13 19 7 10 1019.2 1019.2 0.0
09/02:30am 16.0 14.4 12.9 82 1.7 NNE 13 19 7 10 1019.4 1019.4 0.0
09/02:00am 15.8 13.5 12.9 83 1.6 NNE 17 24 9 13 1019.9 1019.9 0.0
09/01:30am 14.1 12.5 11.6 85 1.3 NNE 11 13 6 7 1020.1 1020.1 0.0
09/01:00am 14.4 12.8 11.7 84 1.4 N 11 13 6 7 1020.3 1020.3 0.0
09/12:30am 14.5 12.9 11.7 83 1.5 N 11 13 6 7 1020.7 1020.7 0.0
09/12:00am 14.3 13.0 11.3 82 1.6 N 9 11 5 6 1021.0 1021.0 0.0
 
Date/Time
EDT
Temp
°C
App
Temp
°C
Dew
Point
°C
Rel
Hum
%
Delta-T
°C
Wind Press
QNH
hPa
Press
MSL
hPa
Rain since
9am
mm
Dir  Spd
km/h
Gust
km/h
Spd
kts
Gust
kts
08/11:30pm 14.1 12.6 10.7 80 1.8 N 9 9 5 5 1021.3 1021.3 0.0
08/11:00pm 15.0 13.2 11.0 77 2.1 NNE 11 13 6 7 1021.3 1021.3 0.0
08/10:30pm 15.6 13.6 11.4 76 2.3 NNE 13 19 7 10 1021.4 1021.4 0.0
08/10:00pm 15.8 13.8 11.6 76 2.3 NNE 13 19 7 10 1021.4 1021.4 0.0
08/09:30pm 15.8 14.1 11.2 74 2.5 NNE 11 17 6 9 1021.3 1021.3 0.0
08/09:00pm 15.9 13.8 11.1 73 2.6 NNE 13 22 7 12 1021.1 1021.1 0.0
08/08:30pm 15.8 13.4 11.4 75 2.4 NE 15 24 8 13 1020.9 1020.9 0.0
08/08:00pm 15.8 12.4 11.2 74 2.5 ENE 20 26 11 14 1020.9 1020.9 0.0
08/07:30pm 16.0 13.0 10.7 71 2.8 E 17 24 9 13 1020.8 1020.8 0.0
08/07:00pm 16.4 14.2 10.7 69 3.0 E 13 19 7 10 1020.7 1020.7 0.0
08/06:30pm 16.9 15.1 10.7 67 3.3 E 11 17 6 9 1020.5 1020.5 0.0
08/06:00pm 17.2 15.3 10.6 65 3.5 E 11 17 6 9 1020.4 1020.4 0.0
08/05:30pm 17.2 15.2 10.1 63 3.8 ESE 11 17 6 9 1020.5 1020.5 0.0
08/05:00pm 17.2 14.8 10.1 63 3.7 ESE 13 17 7 9 1020.6 1020.6 0.0
08/04:30pm 17.4 14.9 9.8 61 4.0 ESE 13 17 7 9 1020.6 1020.6 0.0
08/04:00pm 17.4 14.9 9.6 60 4.1 SE 13 17 7 9 1020.5 1020.5 0.0
08/03:30pm 17.4 14.6 10.1 62 3.9 ESE 15 20 8 11 1020.5 1020.5 0.0
08/03:00pm 17.5 15.1 9.9 61 4.0 S 13 20 7 11 1020.7 1020.7 0.0
08/02:30pm 16.6 12.0 9.8 64 3.6 S 24 30 13 16 1020.3 1020.3 0.0
08/02:00pm 16.3 12.6 9.3 63 3.6 S 19 28 10 15 1020.4 1020.4 0.0
08/01:30pm 16.2 11.7 10.1 67 3.2 S 24 30 13 16 1020.4 1020.4 0.0
08/01:00pm 16.0 10.4 10.1 68 3.1 S 30 35 16 19 1020.2 1020.2 0.0
08/12:30pm 15.8 9.7 9.7 67 3.2 S 32 39 17 21 1020.2 1020.2 0.0
08/12:00pm 16.7 12.0 10.8 68 3.1 S 26 37 14 20 1020.3 1020.3 0.0
08/11:30am 16.0 11.5 9.9 67 3.2 S 24 41 13 22 1020.4 1020.4 0.0
08/11:00am 16.2 11.1 10.7 70 2.9 S 28 39 15 21 1020.4 1020.4 0.0
08/10:30am 15.8 10.6 10.3 70 2.9 S 28 41 15 22 1020.5 1020.5 0.0
08/10:00am 16.4 13.3 10.3 67 3.2 SSW 17 30 9 16 1020.5 1020.5 0.0
08/09:30am 17.0 13.8 8.4 57 4.4 SW 15 22 8 12 1020.7 1020.7 0.0
08/09:00am 16.4 13.7 9.1 62 3.8 SW 13 24 7 13 1020.8 1020.8 0.0
08/08:30am 15.2 12.4 8.4 64 3.4 SW 13 20 7 11 1020.7 1020.7 0.0
08/08:00am 15.0 12.7 9.1 68 3.0 WSW 11 17 6 9 1020.4 1020.4 0.0
08/07:30am 14.5 12.3 9.3 71 2.7 W 11 22 6 12 1020.0 1020.0 0.0
08/07:00am 14.2 12.3 9.2 72 2.5 W 9 15 5 8 1019.6 1019.6 0.0
08/06:30am 14.0 11.7 9.0 72 2.5 WSW 11 19 6 10 1019.2 1019.2 0.0
08/06:00am 14.0 12.1 9.0 72 2.5 WSW 9 19 5 10 1018.8 1018.8 0.0
08/05:30am 13.9 11.2 9.1 73 2.4 WSW 13 20 7 11 1018.8 1018.8 0.0
08/05:00am 14.0 12.1 9.2 73 2.4 SW 9 19 5 10 1018.6 1018.6 0.0
08/04:30am 14.0 12.1 9.0 72 2.5 WSW 9 19 5 10 1018.0 1018.0 0.0
08/04:00am 14.1 11.9 9.3 73 2.4 WSW 11 20 6 11 1017.6 1017.6 0.0
08/03:30am 14.2 12.4 9.6 74 2.4 WSW 9 13 5 7 1017.4 1017.4 0.0
08/03:00am 14.3 12.9 9.5 73 2.5 SW 7 11 4 6 1017.3 1017.3 0.0
08/02:30am 14.3 12.1 9.5 73 2.5 WSW 11 20 6 11 1017.3 1017.3 0.0
08/02:00am 14.3 12.2 9.7 74 2.4 WSW 11 20 6 11 1017.2 1017.2 0.0
08/01:30am 14.2 12.8 9.6 74 2.4 SW 7 15 4 8 1017.3 1017.3 0.0
08/01:00am 13.8 12.4 9.6 76 2.2 WSW 7 11 4 6 1017.3 1017.3 0.0
08/12:30am 13.6 11.4 9.5 76 2.1 WSW 11 20 6 11 1017.2 1017.2 0.0
08/12:00am 13.4 11.6 9.3 76 2.1 WSW 9 17 5 9 1017.0 1017.0 0.0
 
Date/Time
EDT
Temp
°C
App
Temp
°C
Dew
Point
°C
Rel
Hum
%
Delta-T
°C
Wind Press
QNH
hPa
Press
MSL
hPa
Rain since
9am
mm
Dir  Spd
km/h
Gust
km/h
Spd
kts
Gust
kts
07/11:30pm 13.5 11.2 9.0 74 2.3 SW 11 17 6 9 1017.1 1017.1 0.0
07/11:00pm 13.6 11.3 8.9 73 2.4 WSW 11 20 6 11 1016.8 1016.8 0.0
07/10:30pm 13.9 11.2 8.9 72 2.5 WSW 13 20 7 11 1016.3 1016.3 0.0
07/10:00pm 14.1 11.0 8.9 71 2.6 WSW 15 28 8 15 1016.3 1016.3 0.0
07/09:30pm 14.5 11.5 9.1 70 2.8 SW 15 28 8 15 1016.3 1016.3 0.0
07/09:00pm 14.8 11.3 8.7 67 3.1 SW 17 28 9 15 1016.1 1016.1 0.0
07/08:30pm 15.1 12.0 8.8 66 3.2 SW 15 24 8 13 1015.7 1015.7 0.0
07/08:00pm 15.7 12.2 8.7 63 3.6 WSW 17 35 9 19 1015.5 1015.5 0.0
07/07:30pm 16.5 13.0 8.7 60 4.0 WSW 17 32 9 17 1015.1 1015.1 0.0
07/07:00pm 17.7 14.3 9.1 57 4.5 WSW 17 28 9 15 1014.4 1014.4 0.0
07/06:30pm 18.8 15.0 9.0 53 5.1 SW 19 33 10 18 1013.8 1013.8 0.0
07/06:00pm 19.4 16.0 9.0 51 5.5 SW 17 30 9 16 1013.3 1013.3 0.0
07/05:30pm 18.8 14.7 10.1 57 4.6 SSW 22 39 12 21 1013.1 1013.1 0.0
07/05:00pm 18.5 14.7 11.1 62 4.0 S 22 39 12 21 1013.0 1013.0 0.0
07/04:30pm 20.3 16.3 9.2 49 5.9 SSW 20 33 11 18 1012.8 1012.8 0.0
07/04:00pm 17.9 13.5 10.5 62 4.0 S 24 43 13 23 1012.6 1012.6 0.0
07/03:46pm 18.1 12.9 10.2 60 4.2 S 28 46 15 25 1012.4 1012.4 0.0
07/03:30pm 18.8 14.1 10.6 59 4.4 S 26 39 14 21 1012.2 1012.2 0.0
07/03:00pm 20.7 15.7 6.3 39 7.2 SW 22 37 12 20 1012.2 1012.2 0.0
07/02:30pm 21.3 15.5 6.4 38 7.5 SW 26 41 14 22 1012.2 1012.2 0.0
07/02:00pm 21.2 16.0 7.4 41 7.1 SW 24 46 13 25 1012.0 1012.0 0.0
07/01:30pm 21.6 16.4 7.1 39 7.4 SW 24 37 13 20 1012.1 1012.1 0.0
07/01:00pm 21.5 16.2 6.6 38 7.6 SW 24 43 13 23 1012.1 1012.1 0.0
07/12:30pm 21.7 17.2 6.8 38 7.6 WSW 20 37 11 20 1012.0 1012.0 0.0
07/12:00pm 20.4 15.8 6.4 40 7.0 W 20 33 11 18 1012.1 1012.1 0.0
07/11:30am 19.5 14.9 6.3 42 6.6 WSW 20 46 11 25 1012.5 1012.5 0.0
07/11:00am 19.7 15.7 6.8 43 6.5 WSW 17 32 9 17 1012.7 1012.7 0.0
07/10:30am 17.7 12.7 6.3 47 5.6 WSW 22 43 12 23 1012.9 1012.9 0.0
07/10:00am 16.7 11.6 5.9 49 5.2 WSW 22 39 12 21 1013.2 1013.2 0.0
07/09:30am 16.0 11.5 5.9 51 4.9 WSW 19 33 10 18 1013.1 1013.1 0.0
07/09:00am 15.8 10.6 5.7 51 4.8 WSW 22 37 12 20 1013.2 1013.2 0.0
07/08:30am 15.6 11.0 6.3 54 4.5 W 20 37 11 20 1013.1 1013.1 0.0
07/08:00am 14.8 10.6 5.9 55 4.3 W 17 28 9 15 1013.1 1013.1 0.0
07/07:30am 14.2 10.0 5.8 57 4.0 W 17 28 9 15 1013.0 1013.0 0.0
07/07:00am 13.4 8.8 5.6 59 3.7 W 19 28 10 15 1012.8 1012.8 0.0
07/06:30am 12.8 9.7 5.7 62 3.3 W 11 24 6 13 1012.7 1012.7 0.0
07/06:00am 12.3 9.3 5.9 65 3.0 W 11 19 6 10 1012.3 1012.3 0.0
07/05:30am 12.5 9.1 5.9 64 3.1 W 13 30 7 16 1012.2 1012.2 0.0
07/05:00am 12.9 9.5 5.8 62 3.3 W 13 22 7 12 1012.0 1012.0 0.0
07/04:30am 13.4 9.2 5.8 60 3.6 W 17 33 9 18 1011.9 1011.9 0.0
07/04:00am 13.8 10.8 6.2 60 3.6 WSW 11 20 6 11 1012.0 1012.0 0.0
07/03:30am 13.9 10.2 6.3 60 3.6 W 15 28 8 15 1011.6 1011.6 0.0
07/03:00am 13.9 10.2 6.3 60 3.6 WSW 15 28 8 15 1012.0 1012.0 0.0
07/02:30am 13.8 10.2 6.7 62 3.4 WSW 15 30 8 16 1011.8 1011.8 0.0
07/02:00am 13.9 10.9 7.7 66 3.1 WSW 13 22 7 12 1011.9 1011.9 0.0
07/01:30am 13.8 10.0 7.6 66 3.1 SW 17 24 9 13 1011.7 1011.7 0.0
07/01:00am 13.9 10.1 7.4 65 3.2 SW 17 24 9 13 1011.8 1011.8 0.0
07/12:30am 14.0 10.5 7.3 64 3.3 WSW 15 28 8 15 1011.8 1011.8 0.0
07/12:00am 14.1 9.7 7.6 65 3.2 SW 20 43 11 23 1011.9 1011.9 0.0
 
Date/Time
EDT
Temp
°C
App
Temp
°C
Dew
Point
°C
Rel
Hum
%
Delta-T
°C
Wind Press
QNH
hPa
Press
MSL
hPa
Rain since
9am
mm
Dir  Spd
km/h
Gust
km/h
Spd
kts
Gust
kts
06/11:30pm 14.1 11.6 8.1 67 3.0 WSW 11 20 6 11 1012.0 1012.0 0.0
06/11:00pm 13.9 10.9 7.9 67 3.0 WSW 13 22 7 12 1011.8 1011.8 0.0
06/10:30pm 14.1 10.4 8.1 67 3.0 WSW 17 35 9 19 1011.9 1011.9 0.0
06/10:00pm 14.1 11.2 8.3 68 2.9 WSW 13 26 7 14 1011.8 1011.8 0.0
06/09:30pm 14.1 10.9 8.3 68 2.9 WSW 15 28 8 15 1011.4 1011.3 0.0
06/09:00pm 14.1 11.6 8.3 68 2.9 WSW 11 19 6 10 1011.1 1011.0 0.0
06/08:30pm 14.5 11.6 8.2 66 3.2 WSW 13 22 7 12 1010.3 1010.2 0.0
06/08:00pm 14.9 11.6 8.2 64 3.4 WSW 15 28 8 15 1010.2 1010.1 0.0
06/07:30pm 15.7 12.0 8.0 60 3.9 SW 17 35 9 19 1009.5 1009.4 0.0
06/07:00pm 17.0 12.7 7.1 52 4.9 WSW 19 35 10 19 1008.6 1008.5 0.0
06/06:30pm 17.5 13.3 7.5 52 5.0 WSW 19 33 10 18 1008.0 1007.9 0.0
06/06:00pm 17.6 14.3 7.9 53 4.9 SW 15 24 8 13 1007.6 1007.5 0.0
06/05:30pm 19.5 15.9 8.2 48 5.8 SW 17 33 9 18 1007.4 1007.3 0.0
06/05:04pm 19.4 13.2 6.2 42 6.6 SW 28 50 15 27 1007.0 1006.9 0.0
06/05:00pm 19.7 13.6 6.8 43 6.5 SW 28 43 15 23 1007.0 1006.9 0.0
06/04:46pm 19.4 13.3 6.5 43 6.5 SW 28 46 15 25 1007.1 1007.0 0.0
06/04:30pm 20.4 15.2 7.1 42 6.8 SW 24 41 13 22 1006.8 1006.7 0.0
06/04:14pm 19.9 13.6 5.9 40 6.9 SW 28 50 15 27 1006.8 1006.7 0.0
06/04:00pm 20.0 15.1 6.7 42 6.7 SW 22 43 12 23 1006.7 1006.6 0.0
06/03:30pm 20.0 12.9 5.6 39 7.1 SW 32 54 17 29 1006.8 1006.7 0.0
06/03:00pm 20.1 13.3 5.0 37 7.4 SW 30 54 16 29 1006.4 1006.3 0.0
06/02:31pm 20.1 13.9 6.1 40 7.0 SW 28 48 15 26 1006.3 1006.2 0.0
06/02:30pm 20.2 14.3 5.8 39 7.1 SW 26 39 14 21 1006.3 1006.2 0.0
06/02:00pm 20.2 14.0 6.2 40 7.0 SW 28 48 15 26 1006.3 1006.2 0.0
06/01:56pm 20.1 13.9 6.1 40 7.0 SW 28 48 15 26 1006.4 1006.3 0.0
06/01:30pm 20.0 15.1 7.1 43 6.6 SW 22 37 12 20 1006.6 1006.5 0.0
06/01:00pm 20.1 15.5 6.5 41 6.9 WSW 20 35 11 19 1006.6 1006.5 0.0
06/12:30pm 19.6 15.1 7.0 44 6.4 WSW 20 35 11 19 1007.1 1007.0 0.0
06/12:00pm 18.2 13.5 6.1 45 6.0 SW 20 32 11 17 1007.6 1007.5 0.0
06/11:30am 17.9 13.6 7.0 49 5.5 SW 19 32 10 17 1007.8 1007.7 0.0
06/11:00am 17.1 13.2 7.2 52 5.0 WSW 17 30 9 16 1007.6 1007.5 0.0
06/10:30am 16.3 12.4 7.3 55 4.5 WSW 17 30 9 16 1007.8 1007.7 0.0
06/10:00am 15.2 11.8 7.5 60 3.8 WSW 15 26 8 14 1008.0 1007.9 0.0
06/09:30am 15.5 12.5 7.8 60 3.9 WSW 13 22 7 12 1007.9 1007.8 0.0
06/09:00am 15.4 12.0 7.7 60 3.9 WSW 15 24 8 13 1007.8 1007.7 0.0
06/08:30am 15.4 11.8 8.2 62 3.6 WSW 17 28 9 15 1007.8 1007.7 0.0
06/08:00am 15.3 11.7 8.3 63 3.5 WSW 17 28 9 15 1007.6 1007.5 0.0
06/07:30am 15.4 12.7 8.9 65 3.3 WSW 13 24 7 13 1007.2 1007.1 0.0
06/07:00am 15.0 12.2 8.5 65 3.3 WSW 13 24 7 13 1007.0 1006.9 0.0

Other formats

Comma delimited format used in spreadsheet applications
http://www.bom.gov.au/fwo/IDV60801/IDV60801.94935.axf

JavaScript Object Notation format (JSON) in row-major order
http://www.bom.gov.au/fwo/IDV60801/IDV60801.94935.json

Data quality

Most of these data are generated automatically and are frequently updated. Quality checks on data are not normally performed. It is possible for incorrect values to appear. Refer to information at About Latest Weather Observations and please check the disclaimer before using these data.